PAMC

Mc Grath Airport

Mcgrath, Alaska, USA
PAMC 221739Z 2218/2318 11005KT P6SM SKC FM230300 VRB03KT P6SM VCTS SCT050CB
Issued Valid From Valid To
Jul-22 @ 17:39 UTC
(2 hours ago)
Jul-22 @ 18:00 UTC
(2 hours ago)
Jul-23 @ 18:00 UTC
(in 22 hours)
Jul-22 @ 18:00 to Jul-23 @ 03:00
PAMC 221739Z 2218/2318 11005KT P6SM SKC
Wind Visibility Clouds
110° at 5 knots Greater than 6 miles
  • Clear skies
From Jul-23 @ 03:00 to Jul-23 @ 18:00
FM230300 VRB03KT P6SM VCTS SCT050CB
Wind Visibility Clouds Conditions
Variable at 3 knots Greater than 6 miles
  • Scattered at 5,000' AGL
  • Area Thunderstorm
PAMC 221739Z 2218/2318 11005KT P6SM SKC FM230300 VRB03KT P6SM VCTS SCT050CB
Issued Jul-22 @ 17:39 UTC
(2 hours ago)
Valid From Jul-22 @ 18:00 UTC
(2 hours ago)
Valid To Jul-23 @ 18:00 UTC
(in 22 hours)
Jul-22 @ 18:00 - Jul-23 @ 03:00
Wind Visibility
110° at 5 knots Greater than 6 miles
Clouds
  • Clear skies
From Jul-23 @ 03:00 - Jul-23 @ 18:00
Wind Visibility
Variable at 3 knots Greater than 6 miles
Clouds
  • Scattered at 5,000' AGL
Conditions
  • Area Thunderstorm